Time;durP1;ratioP1;P1;durP2;ratioP2;P2;SDS_P1;SDS_P2;PMS_P1;PMS_P2;Temp;Humidity;BMP_temperature;BMP_pressure;BME280_temperature;BME280_humidity;BME280_pressure;Samples;Min_cycle;Max_cycle;Signal;HPM_P1;HPM_P2
2021/08/19 00:02:24;;;;;;;0.90;0.80;;;18.00;99.90;;;;;;5020450;28;20192;-73
2021/08/19 00:04:51;;;;;;;5.60;3.43;;;18.00;99.90;;;;;;5001955;28;20171;-76
2021/08/19 00:07:17;;;;;;;1.20;1.10;;;17.90;99.90;;;;;;5011010;28;20234;-72
2021/08/19 00:09:43;;;;;;;1.43;1.07;;;17.90;99.90;;;;;;5017121;28;20419;-74
2021/08/19 00:12:09;;;;;;;1.00;0.80;;;17.90;99.90;;;;;;5018651;28;20883;-72
2021/08/19 00:14:38;;;;;;;1.73;1.17;;;17.90;99.90;;;;;;5019350;28;20259;-73
2021/08/19 00:17:06;;;;;;;0.80;0.63;;;17.90;99.90;;;;;;5022982;28;20480;-72
2021/08/19 00:19:31;;;;;;;1.87;1.77;;;17.90;99.90;;;;;;5017093;28;20928;-74
2021/08/19 00:21:57;;;;;;;1.07;0.80;;;17.90;99.90;;;;;;5023403;28;20427;-72
2021/08/19 00:24:23;;;;;;;4.37;1.50;;;18.00;99.90;;;;;;5004395;28;20375;-73
2021/08/19 00:26:49;;;;;;;2.30;1.83;;;18.00;99.90;;;;;;5020768;28;20195;-73
2021/08/19 00:29:14;;;;;;;1.57;0.83;;;18.00;99.90;;;;;;5031564;28;20434;-74
2021/08/19 00:31:40;;;;;;;1.40;1.30;;;18.00;99.90;;;;;;5027975;28;20187;-75
2021/08/19 00:34:05;;;;;;;0.80;0.60;;;17.90;99.90;;;;;;5034371;28;20217;-73
2021/08/19 00:36:31;;;;;;;1.63;1.37;;;18.00;99.90;;;;;;5013454;28;20684;-74
2021/08/19 00:38:58;;;;;;;0.90;0.90;;;18.00;99.90;;;;;;5014541;28;20191;-74
2021/08/19 00:41:24;;;;;;;1.83;1.27;;;18.10;99.90;;;;;;5014564;28;20172;-74
2021/08/19 00:43:49;;;;;;;0.90;0.70;;;18.10;99.90;;;;;;5018033;28;20508;-74
2021/08/19 00:46:31;;;;;;;0.70;0.60;;;18.10;99.90;;;;;;5027612;28;20203;-73
2021/08/19 00:49:09;;;;;;;0.80;0.80;;;18.10;99.90;;;;;;5012405;28;20529;-74
2021/08/19 00:51:36;;;;;;;2.07;1.40;;;18.00;99.90;;;;;;5024534;28;20518;-75
2021/08/19 00:54:08;;;;;;;1.10;1.00;;;18.00;99.90;;;;;;4996782;28;20863;-73
2021/08/19 00:56:35;;;;;;;1.77;1.00;;;18.00;99.90;;;;;;5014390;28;20537;-74
2021/08/19 00:59:03;;;;;;;1.00;0.67;;;18.00;99.90;;;;;;5025306;28;20429;-74
2021/08/19 01:01:29;;;;;;;1.13;1.03;;;18.00;99.90;;;;;;5028177;28;20867;-74
2021/08/19 01:03:56;;;;;;;1.00;0.67;;;18.00;99.90;;;;;;5014329;28;20486;-75
2021/08/19 01:06:21;;;;;;;0.90;0.70;;;18.00;99.90;;;;;;5020648;28;20192;-77
2021/08/19 01:08:47;;;;;;;1.93;1.70;;;18.10;99.90;;;;;;5007101;28;20431;-75
2021/08/19 01:11:13;;;;;;;1.30;1.20;;;18.00;99.90;;;;;;5014060;28;20191;-74
2021/08/19 01:13:39;;;;;;;2.00;1.00;;;18.10;99.90;;;;;;5014426;28;20176;-75
2021/08/19 01:16:06;;;;;;;1.27;1.17;;;18.10;99.90;;;;;;5019142;28;20996;-75
2021/08/19 01:18:43;;;;;;;1.30;1.07;;;18.10;99.90;;;;;;5017932;28;20437;-74
2021/08/19 01:21:10;;;;;;;3.77;1.17;;;18.10;99.90;;;;;;5006491;28;20901;-73
2021/08/19 01:23:36;;;;;;;1.40;1.03;;;18.10;99.90;;;;;;5031094;28;20426;-74
2021/08/19 01:26:12;;;;;;;1.23;0.90;;;18.10;99.90;;;;;;5032649;28;20433;-74
2021/08/19 01:28:38;;;;;;;1.77;1.07;;;18.00;99.90;;;;;;5029772;28;20175;-74
2021/08/19 01:31:06;;;;;;;0.80;0.73;;;18.00;99.90;;;;;;5020390;28;20473;-74
2021/08/19 01:33:33;;;;;;;1.07;0.80;;;18.00;99.90;;;;;;5014149;28;20830;-74
2021/08/19 01:35:59;;;;;;;1.00;0.90;;;18.00;99.90;;;;;;5025168;28;20499;-73
2021/08/19 01:38:32;;;;;;;1.90;1.80;;;18.00;99.90;;;;;;4996254;28;20462;-74
2021/08/19 01:40:58;;;;;;;1.23;1.00;;;18.00;99.90;;;;;;5013408;28;20923;-74
2021/08/19 01:43:25;;;;;;;3.40;1.20;;;18.00;99.90;;;;;;4996030;28;21116;-75
2021/08/19 01:45:58;;;;;;;1.53;1.17;;;18.00;99.90;;;;;;5023544;28;20425;-74
2021/08/19 01:48:25;;;;;;;0.80;0.80;;;18.00;99.90;;;;;;5018558;28;20435;-74
2021/08/19 01:50:51;;;;;;;0.70;0.60;;;18.00;99.90;;;;;;5014472;28;20441;-74
2021/08/19 01:53:17;;;;;;;0.70;0.60;;;18.00;99.90;;;;;;5026988;28;20411;-74
2021/08/19 01:55:42;;;;;;;1.33;1.23;;;18.00;99.90;;;;;;5012793;28;20295;-74
2021/08/19 01:58:09;;;;;;;2.13;2.03;;;18.00;99.90;;;;;;5013183;28;20541;-74
2021/08/19 02:00:36;;;;;;;14.90;6.70;;;18.00;99.90;;;;;;5019716;28;20163;-74
2021/08/19 02:03:02;;;;;;;2.10;1.40;;;18.10;99.90;;;;;;5021243;28;20430;-74
2021/08/19 02:05:29;;;;;;;0.70;0.50;;;18.10;99.90;;;;;;5031400;28;20406;-73
2021/08/19 02:07:54;;;;;;;1.93;1.10;;;18.10;99.90;;;;;;5024265;28;20528;-76
2021/08/19 02:10:20;;;;;;;1.50;1.23;;;18.10;99.90;;;;;;5012701;28;20530;-73
2021/08/19 02:12:45;;;;;;;0.70;0.60;;;18.10;99.90;;;;;;5020686;28;20526;-74
2021/08/19 02:15:12;;;;;;;3.07;2.87;;;18.10;99.90;;;;;;5019211;28;20187;-73
2021/08/19 02:17:38;;;;;;;1.90;0.83;;;18.10;99.90;;;;;;5005647;28;20698;-74
2021/08/19 02:20:04;;;;;;;1.00;0.80;;;18.10;99.90;;;;;;5032691;28;20486;-73
2021/08/19 02:22:29;;;;;;;1.07;0.70;;;18.10;99.90;;;;;;4999990;28;20199;-74
2021/08/19 02:24:55;;;;;;;1.63;1.53;;;18.10;99.90;;;;;;5019626;28;20434;-75
2021/08/19 02:27:21;;;;;;;1.40;1.30;;;18.10;99.90;;;;;;5010947;28;20229;-78
2021/08/19 02:29:47;;;;;;;3.10;2.83;;;18.10;99.90;;;;;;5028129;28;20192;-74
2021/08/19 02:32:13;;;;;;;1.10;1.00;;;18.20;99.90;;;;;;5008182;28;20438;-74
2021/08/19 02:34:38;;;;;;;0.73;0.57;;;18.10;99.90;;;;;;5012774;28;20795;-75
2021/08/19 02:37:04;;;;;;;1.17;1.07;;;18.20;99.90;;;;;;5026550;28;20215;-73
2021/08/19 02:39:29;;;;;;;1.80;1.70;;;18.20;99.90;;;;;;5019611;28;20549;-74
2021/08/19 02:41:55;;;;;;;0.83;0.83;;;18.20;99.90;;;;;;5017994;28;20172;-74
2021/08/19 02:44:20;;;;;;;0.70;0.60;;;18.20;99.90;;;;;;5020695;28;20183;-73
2021/08/19 02:46:46;;;;;;;2.30;2.20;;;18.10;99.90;;;;;;5022854;28;20205;-74
2021/08/19 02:49:12;;;;;;;2.50;0.93;;;18.10;99.90;;;;;;5016961;28;20183;-74
2021/08/19 02:51:37;;;;;;;0.70;0.70;;;18.10;99.90;;;;;;5028297;28;20656;-75
2021/08/19 02:54:03;;;;;;;0.80;0.67;;;18.10;99.90;;;;;;5018954;28;20180;-75
2021/08/19 02:56:28;;;;;;;4.60;0.93;;;18.00;99.90;;;;;;5014304;28;20239;-76
2021/08/19 02:58:54;;;;;;;1.60;1.50;;;18.10;99.90;;;;;;5006118;28;20185;-76
2021/08/19 03:01:19;;;;;;;3.90;3.03;;;18.10;99.90;;;;;;5018866;28;20615;-75
2021/08/19 03:03:45;;;;;;;4.07;2.70;;;18.20;99.90;;;;;;5014716;28;20207;-76
2021/08/19 03:06:10;;;;;;;1.33;1.00;;;18.20;99.90;;;;;;5022040;28;20257;-76
2021/08/19 03:08:36;;;;;;;0.70;0.50;;;18.20;99.90;;;;;;5013809;28;20180;-75
2021/08/19 03:11:01;;;;;;;1.07;0.97;;;18.20;99.90;;;;;;5011036;28;20176;-75
2021/08/19 03:13:27;;;;;;;1.50;0.70;;;18.20;99.90;;;;;;5011615;28;20188;-74
2021/08/19 03:15:53;;;;;;;3.40;1.73;;;18.20;99.90;;;;;;5033286;28;20191;-76
2021/08/19 03:18:18;;;;;;;1.93;1.47;;;18.20;99.90;;;;;;5022531;28;20187;-74
2021/08/19 03:20:44;;;;;;;0.83;0.77;;;18.30;99.90;;;;;;5011978;28;20169;-74
2021/08/19 03:23:09;;;;;;;2.20;1.47;;;18.30;99.90;;;;;;5013436;28;20672;-74
2021/08/19 03:25:35;;;;;;;1.03;0.70;;;18.30;99.90;;;;;;5022493;28;20199;-73
2021/08/19 03:28:03;;;;;;;1.70;1.03;;;18.30;99.90;;;;;;5023370;28;20569;-76
2021/08/19 03:30:28;;;;;;;1.57;1.03;;;18.20;99.90;;;;;;5033501;28;20179;-75
2021/08/19 03:32:54;;;;;;;1.17;1.07;;;18.30;99.90;;;;;;5016062;28;20442;-76
2021/08/19 03:35:20;;;;;;;0.80;0.77;;;18.20;99.90;;;;;;5013592;28;20180;-76
2021/08/19 03:37:46;;;;;;;5.03;1.57;;;18.30;99.90;;;;;;5030844;28;20261;-74
2021/08/19 03:40:12;;;;;;;1.43;1.33;;;18.20;99.90;;;;;;5022788;28;20423;-74
2021/08/19 03:42:38;;;;;;;0.80;0.67;;;18.20;99.90;;;;;;5024787;28;20167;-74
2021/08/19 03:45:11;;;;;;;0.70;0.60;;;18.40;99.90;;;;;;5014228;28;20430;-74
2021/08/19 03:47:37;;;;;;;0.97;0.80;;;18.40;99.90;;;;;;5017134;28;20521;-75
2021/08/19 03:50:05;;;;;;;1.67;1.17;;;18.30;99.90;;;;;;5031415;28;20493;-73
2021/08/19 03:52:30;;;;;;;1.47;1.37;;;18.40;99.90;;;;;;5030575;28;20164;-76
2021/08/19 03:54:57;;;;;;;1.20;1.07;;;18.40;99.90;;;;;;5034897;28;20395;-75
2021/08/19 03:57:22;;;;;;;0.80;0.70;;;18.30;99.90;;;;;;5031062;28;20203;-75
2021/08/19 03:59:48;;;;;;;4.50;1.47;;;18.40;99.90;;;;;;5032539;28;20429;-75
2021/08/19 04:02:13;;;;;;;3.07;1.80;;;18.30;99.90;;;;;;5033646;28;20179;-74
2021/08/19 04:04:39;;;;;;;2.60;1.57;;;18.30;99.90;;;;;;5027646;28;20303;-75
2021/08/19 04:07:04;;;;;;;0.77;0.63;;;18.20;99.90;;;;;;5003046;28;20199;-75
2021/08/19 04:09:30;;;;;;;1.37;1.27;;;18.30;99.90;;;;;;5024617;28;20611;-75
2021/08/19 04:11:55;;;;;;;1.50;1.40;;;18.40;99.90;;;;;;5019856;28;20172;-75
2021/08/19 04:14:21;;;;;;;1.43;1.33;;;18.40;99.90;;;;;;4998603;28;20187;-73
2021/08/19 04:16:46;;;;;;;1.13;1.00;;;18.40;99.90;;;;;;5014794;28;20207;-73
2021/08/19 04:19:12;;;;;;;1.80;1.70;;;18.40;99.90;;;;;;5022231;28;20175;-75
2021/08/19 04:21:37;;;;;;;0.97;0.90;;;18.30;99.90;;;;;;5017222;28;20255;-75
2021/08/19 04:24:04;;;;;;;1.03;0.80;;;18.20;99.90;;;;;;5018565;28;20204;-73
2021/08/19 04:26:30;;;;;;;1.40;0.97;;;18.10;99.90;;;;;;5011680;28;20887;-74
2021/08/19 04:28:55;;;;;;;2.67;2.10;;;18.10;99.90;;;;;;5014968;28;20172;-73
2021/08/19 04:31:21;;;;;;;0.80;0.77;;;18.10;99.90;;;;;;5014667;28;20219;-73
2021/08/19 04:33:46;;;;;;;1.47;1.33;;;18.10;99.90;;;;;;4997171;28;20545;-74
2021/08/19 04:36:12;;;;;;;1.00;0.90;;;18.10;99.90;;;;;;5018148;28;20239;-76
2021/08/19 04:38:37;;;;;;;1.33;1.23;;;18.00;99.90;;;;;;5027614;28;20542;-75
2021/08/19 04:41:03;;;;;;;2.00;0.87;;;18.00;99.90;;;;;;5014626;28;20180;-74
2021/08/19 04:43:29;;;;;;;1.27;1.17;;;18.10;99.90;;;;;;5018680;28;20529;-74
2021/08/19 04:45:55;;;;;;;0.90;0.67;;;18.00;99.90;;;;;;5033778;28;20187;-75
2021/08/19 04:48:20;;;;;;;2.13;1.93;;;18.00;99.90;;;;;;5029009;28;20180;-74
2021/08/19 04:50:46;;;;;;;0.70;0.60;;;18.00;99.90;;;;;;5014461;28;20172;-75
2021/08/19 04:53:11;;;;;;;0.70;0.60;;;18.00;99.90;;;;;;5020206;28;20179;-74
2021/08/19 04:55:37;;;;;;;1.17;0.60;;;18.00;99.90;;;;;;5033895;28;20195;-75
2021/08/19 04:58:03;;;;;;;1.00;0.90;;;18.00;99.90;;;;;;5024872;28;20203;-74
2021/08/19 05:00:28;;;;;;;1.30;1.20;;;18.10;99.90;;;;;;5029718;28;20204;-74
2021/08/19 05:02:54;;;;;;;1.00;0.60;;;18.00;99.90;;;;;;5017138;28;20183;-74
2021/08/19 05:05:19;;;;;;;0.80;0.67;;;18.00;99.90;;;;;;5007419;28;20238;-75
2021/08/19 05:07:45;;;;;;;1.00;0.90;;;18.10;99.90;;;;;;5014736;28;20219;-74
2021/08/19 05:10:10;;;;;;;1.37;1.27;;;18.10;99.90;;;;;;5015198;28;20641;-75
2021/08/19 05:12:36;;;;;;;0.70;0.50;;;18.00;99.90;;;;;;5001705;28;20184;-74
2021/08/19 05:15:02;;;;;;;12.47;3.90;;;18.10;99.90;;;;;;5014561;28;20175;-74
2021/08/19 05:17:28;;;;;;;1.73;1.63;;;18.00;99.90;;;;;;5021515;28;20583;-75
2021/08/19 05:19:53;;;;;;;2.30;0.90;;;18.00;99.90;;;;;;5014496;28;20168;-74
2021/08/19 05:22:19;;;;;;;1.20;0.90;;;18.00;99.90;;;;;;5033786;28;20167;-72
2021/08/19 05:24:44;;;;;;;3.27;0.80;;;18.10;99.90;;;;;;5033661;28;20172;-74
2021/08/19 05:27:10;;;;;;;1.20;0.80;;;18.00;99.90;;;;;;5019073;28;20191;-74
2021/08/19 05:29:35;;;;;;;0.90;0.60;;;18.10;99.90;;;;;;5021698;28;20176;-75
2021/08/19 05:32:01;;;;;;;0.70;0.70;;;18.10;99.90;;;;;;5018442;28;20188;-73
2021/08/19 05:34:26;;;;;;;1.30;1.10;;;18.10;99.90;;;;;;4996204;28;20172;-73
2021/08/19 05:36:52;;;;;;;0.70;0.60;;;18.10;99.90;;;;;;5011583;28;20313;-73
2021/08/19 05:39:17;;;;;;;1.33;1.23;;;18.20;99.90;;;;;;5033826;28;20194;-77
2021/08/19 05:41:43;;;;;;;3.10;1.57;;;18.20;99.90;;;;;;5016716;28;20204;-76
2021/08/19 05:44:09;;;;;;;0.97;0.80;;;18.10;99.90;;;;;;5008030;28;20173;-76
2021/08/19 05:46:34;;;;;;;0.80;0.60;;;18.10;99.90;;;;;;5014600;28;20199;-76
2021/08/19 05:49:00;;;;;;;0.80;0.80;;;18.10;99.90;;;;;;5032110;28;20258;-74
2021/08/19 05:51:26;;;;;;;1.30;1.13;;;18.10;99.90;;;;;;5018593;28;20176;-75
2021/08/19 05:53:51;;;;;;;1.20;1.10;;;18.10;99.90;;;;;;5013141;28;20439;-74
2021/08/19 05:56:17;;;;;;;2.17;1.17;;;18.00;99.90;;;;;;5014391;28;20222;-75
2021/08/19 05:58:42;;;;;;;1.10;0.97;;;18.00;99.90;;;;;;4998198;28;20770;-74
2021/08/19 06:01:09;;;;;;;1.30;1.00;;;18.00;99.90;;;;;;5012494;28;20176;-75
2021/08/19 06:03:34;;;;;;;2.20;0.87;;;18.00;99.90;;;;;;4995263;28;20181;-75
2021/08/19 06:06:00;;;;;;;1.40;0.83;;;18.00;99.90;;;;;;5023634;28;20437;-77
2021/08/19 06:08:26;;;;;;;0.87;0.80;;;18.00;99.90;;;;;;4998295;28;20195;-77
2021/08/19 06:10:51;;;;;;;1.10;0.90;;;18.00;99.90;;;;;;5013583;28;20259;-75
2021/08/19 06:13:17;;;;;;;1.20;1.00;;;18.10;99.90;;;;;;5014599;28;20269;-75
2021/08/19 06:15:43;;;;;;;0.70;0.60;;;18.10;99.90;;;;;;5015602;28;20361;-73
2021/08/19 06:18:09;;;;;;;1.23;1.13;;;18.10;99.90;;;;;;5022205;28;20450;-73
2021/08/19 06:20:35;;;;;;;1.23;1.13;;;18.10;99.90;;;;;;5028353;28;20431;-73
2021/08/19 06:23:01;;;;;;;1.00;0.80;;;18.00;99.90;;;;;;4995883;28;20180;-71
2021/08/19 06:25:27;;;;;;;0.70;0.60;;;18.00;99.90;;;;;;5026060;28;20258;-75
2021/08/19 06:27:54;;;;;;;1.63;1.53;;;18.00;99.90;;;;;;5005633;28;20518;-76
2021/08/19 06:30:20;;;;;;;0.70;0.60;;;18.10;99.90;;;;;;5022691;28;20234;-76
2021/08/19 06:32:45;;;;;;;1.03;0.60;;;18.10;99.90;;;;;;5028077;28;20437;-75
2021/08/19 06:35:11;;;;;;;1.07;0.97;;;18.10;99.90;;;;;;5028297;28;20514;-75
2021/08/19 06:37:38;;;;;;;0.80;0.70;;;18.10;99.90;;;;;;5011349;28;20235;-75
2021/08/19 06:40:04;;;;;;;4.20;0.80;;;18.10;99.90;;;;;;4997263;28;20231;-74
2021/08/19 06:42:30;;;;;;;1.20;0.93;;;18.10;99.90;;;;;;5008604;28;20471;-77
2021/08/19 06:44:55;;;;;;;1.57;0.73;;;18.10;99.90;;;;;;5015092;28;20998;-76
2021/08/19 06:47:21;;;;;;;2.60;1.33;;;18.20;99.90;;;;;;5019602;28;20281;-77
2021/08/19 06:49:46;;;;;;;3.03;2.83;;;18.20;99.90;;;;;;4998884;28;20184;-74
2021/08/19 06:52:12;;;;;;;1.33;0.90;;;18.10;99.90;;;;;;5014672;28;20190;-75
2021/08/19 06:54:38;;;;;;;1.17;1.07;;;18.10;99.90;;;;;;5011349;28;20183;-74
2021/08/19 06:57:04;;;;;;;0.80;0.70;;;18.10;99.90;;;;;;5008797;28;20207;-74
2021/08/19 06:59:29;;;;;;;1.30;1.03;;;18.20;99.90;;;;;;5023956;28;20176;-72
2021/08/19 07:01:55;;;;;;;1.00;1.00;;;18.30;99.90;;;;;;5012105;28;20498;-75
2021/08/19 07:04:21;;;;;;;0.77;0.70;;;18.30;99.90;;;;;;5014394;28;20226;-76
2021/08/19 07:06:46;;;;;;;0.70;0.53;;;18.30;99.90;;;;;;5010709;28;20548;-74
2021/08/19 07:09:13;;;;;;;1.83;1.10;;;18.20;99.90;;;;;;5013983;28;20461;-74
2021/08/19 07:11:39;;;;;;;1.23;0.83;;;18.20;99.90;;;;;;5031224;28;20183;-74
2021/08/19 07:14:04;;;;;;;1.03;0.90;;;18.20;99.90;;;;;;5016212;28;21096;-73
2021/08/19 07:16:30;;;;;;;1.07;0.70;;;18.10;99.90;;;;;;5014901;28;20294;-73
2021/08/19 07:18:55;;;;;;;1.10;1.00;;;18.20;99.90;;;;;;5020257;28;20183;-74
2021/08/19 07:21:21;;;;;;;1.60;0.93;;;18.20;99.90;;;;;;5027870;28;20230;-73
2021/08/19 07:23:47;;;;;;;1.20;0.70;;;18.30;99.90;;;;;;5019718;28;20650;-76
2021/08/19 07:26:12;;;;;;;1.13;0.80;;;18.20;99.90;;;;;;4995855;28;20210;-74
2021/08/19 07:28:38;;;;;;;1.47;0.70;;;18.30;99.90;;;;;;5015280;28;20184;-75
2021/08/19 07:31:03;;;;;;;1.63;1.53;;;18.30;99.90;;;;;;5022246;28;20249;-75
2021/08/19 07:33:29;;;;;;;0.70;0.60;;;18.30;99.90;;;;;;5027511;28;20183;-74
2021/08/19 07:35:54;;;;;;;2.73;1.53;;;18.30;99.90;;;;;;5033650;28;20687;-74
2021/08/19 07:38:20;;;;;;;3.03;1.00;;;18.30;99.90;;;;;;5014191;28;20246;-73
2021/08/19 07:40:47;;;;;;;1.03;0.93;;;18.30;99.90;;;;;;5015961;28;20747;-74
2021/08/19 07:43:12;;;;;;;1.40;1.30;;;18.40;99.90;;;;;;5015985;28;20266;-77
2021/08/19 07:45:38;;;;;;;3.43;1.83;;;18.60;99.90;;;;;;5023286;28;20480;-73
2021/08/19 07:48:09;;;;;;;0.80;0.70;;;18.70;99.90;;;;;;5018554;28;20243;-73
2021/08/19 07:50:35;;;;;;;1.30;1.20;;;18.90;99.90;;;;;;5034576;28;20249;-77
2021/08/19 07:53:01;;;;;;;1.90;1.43;;;19.10;99.90;;;;;;5036484;28;20830;-75
2021/08/19 07:55:26;;;;;;;1.20;1.07;;;19.20;99.90;;;;;;5024842;28;20441;-77
2021/08/19 07:57:52;;;;;;;2.93;1.23;;;19.50;99.90;;;;;;5017944;28;20200;-77
2021/08/19 08:00:23;;;;;;;1.20;1.00;;;19.70;99.90;;;;;;5019188;28;20234;-74
2021/08/19 08:02:51;;;;;;;1.90;1.20;;;19.80;99.90;;;;;;5015563;28;20207;-73
2021/08/19 08:05:16;;;;;;;2.43;1.90;;;19.80;99.90;;;;;;5021815;28;20437;-76
2021/08/19 08:07:42;;;;;;;1.20;0.87;;;19.90;99.90;;;;;;5020758;28;20458;-77
2021/08/19 08:10:08;;;;;;;0.90;0.80;;;19.90;99.90;;;;;;5008760;28;20184;-76
2021/08/19 08:12:33;;;;;;;1.77;1.67;;;20.00;99.90;;;;;;5025310;28;20192;-78
2021/08/19 08:14:59;;;;;;;0.70;0.53;;;20.00;99.90;;;;;;5014190;28;20276;-74
2021/08/19 08:17:25;;;;;;;2.50;2.30;;;20.20;99.90;;;;;;5024271;28;20218;-76
2021/08/19 08:19:51;;;;;;;2.13;1.80;;;20.10;99.90;;;;;;5015444;28;20561;-73
2021/08/19 08:22:17;;;;;;;1.00;0.90;;;20.40;99.90;;;;;;5001128;28;20429;-73
2021/08/19 08:24:43;;;;;;;0.80;0.60;;;20.70;99.90;;;;;;5033822;28;20717;-73
2021/08/19 08:27:08;;;;;;;0.90;0.77;;;20.70;99.90;;;;;;5031497;28;20544;-72
2021/08/19 08:29:35;;;;;;;1.87;1.77;;;20.80;99.90;;;;;;5016424;28;20542;-74
2021/08/19 08:32:05;;;;;;;1.10;0.80;;;21.00;99.90;;;;;;5012511;28;20609;-74
2021/08/19 08:34:32;;;;;;;0.80;0.80;;;21.30;99.90;;;;;;5017956;28;20427;-75
2021/08/19 08:36:57;;;;;;;2.07;0.80;;;21.40;99.90;;;;;;5002998;28;20552;-74
2021/08/19 08:39:25;;;;;;;0.80;0.70;;;21.40;99.90;;;;;;5016244;28;21030;-76
2021/08/19 08:41:52;;;;;;;1.13;0.80;;;21.20;99.90;;;;;;5021049;28;20560;-76
2021/08/19 08:44:18;;;;;;;1.37;1.27;;;21.20;99.90;;;;;;5015570;28;20433;-75
2021/08/19 08:46:46;;;;;;;1.40;1.00;;;21.20;99.90;;;;;;5027355;28;20457;-75
2021/08/19 08:49:12;;;;;;;1.10;0.70;;;21.20;99.90;;;;;;5018357;28;20948;-76
2021/08/19 08:51:38;;;;;;;0.80;0.80;;;21.40;99.90;;;;;;5021337;28;20430;-75
2021/08/19 08:54:04;;;;;;;0.70;0.60;;;21.40;99.90;;;;;;5014679;28;20439;-75
2021/08/19 08:56:29;;;;;;;3.40;1.33;;;21.50;99.90;;;;;;5027020;28;20227;-76
2021/08/19 08:58:56;;;;;;;1.40;1.30;;;21.80;99.90;;;;;;5033061;28;20183;-75
2021/08/19 09:01:21;;;;;;;1.43;1.00;;;21.80;99.90;;;;;;5026086;28;20179;-75
2021/08/19 09:03:47;;;;;;;0.80;0.70;;;21.90;99.90;;;;;;5029745;28;20449;-74
2021/08/19 09:06:17;;;;;;;1.40;1.30;;;22.10;99.90;;;;;;5020719;28;20258;-74
2021/08/19 09:08:51;;;;;;;0.80;0.60;;;22.10;99.90;;;;;;5023452;28;20207;-78
2021/08/19 09:11:17;;;;;;;1.07;0.93;;;22.10;99.90;;;;;;5023489;28;20433;-75
2021/08/19 09:13:42;;;;;;;0.90;0.80;;;22.10;99.90;;;;;;5028527;28;20491;-74
2021/08/19 09:16:19;;;;;;;0.80;0.60;;;22.20;99.90;;;;;;5013330;28;20211;-75
2021/08/19 09:18:45;;;;;;;1.30;0.93;;;22.20;99.90;;;;;;5013492;28;20187;-76
2021/08/19 09:21:21;;;;;;;2.13;1.17;;;22.50;99.90;;;;;;5013707;28;20468;-76
2021/08/19 09:24:16;;;;;;;0.80;0.63;;;22.60;99.90;;;;;;5010893;28;20433;-76
2021/08/19 09:26:43;;;;;;;1.60;1.17;;;22.20;99.90;;;;;;5016348;28;20459;-76
2021/08/19 09:29:41;;;;;;;1.17;1.07;;;22.30;99.90;;;;;;5013977;28;20411;-76
2021/08/19 09:32:14;;;;;;;0.70;0.60;;;22.20;99.90;;;;;;4983816;28;20434;-75
2021/08/19 09:34:43;;;;;;;0.90;0.80;;;22.20;99.90;;;;;;5023360;28;20434;-76
2021/08/19 09:37:12;;;;;;;0.80;0.70;;;22.20;99.90;;;;;;5016835;28;20470;-75
2021/08/19 09:39:43;;;;;;;0.87;0.70;;;22.10;99.90;;;;;;5013700;28;20435;-74
2021/08/19 09:42:11;;;;;;;2.00;1.37;;;21.90;99.90;;;;;;5026815;28;20441;-75
2021/08/19 09:44:40;;;;;;;0.80;0.60;;;21.70;99.90;;;;;;5021197;28;20843;-75
2021/08/19 09:47:26;;;;;;;0.90;0.80;;;21.60;99.90;;;;;;5030879;28;20457;-74
2021/08/19 09:50:08;;;;;;;2.07;1.30;;;21.50;99.90;;;;;;5012489;28;20493;-75
2021/08/19 09:52:33;;;;;;;1.10;1.00;;;21.40;99.90;;;;;;5024586;28;20889;-76
2021/08/19 09:55:32;;;;;;;2.50;1.30;;;21.40;99.90;;;;;;5032197;28;20459;-76
2021/08/19 09:58:00;;;;;;;2.00;1.37;;;21.30;99.90;;;;;;5030174;28;20207;-76
2021/08/19 10:00:29;;;;;;;1.00;0.87;;;21.20;99.90;;;;;;5009017;28;20502;-76
2021/08/19 10:02:56;;;;;;;1.43;0.80;;;21.30;99.90;;;;;;5013746;28;20421;-74
2021/08/19 10:05:21;;;;;;;1.23;1.07;;;21.40;99.90;;;;;;5027674;28;20430;-76
2021/08/19 10:07:47;;;;;;;1.00;0.73;;;21.20;99.90;;;;;;5019400;28;20450;-76
2021/08/19 10:10:12;;;;;;;1.10;1.00;;;21.10;99.90;;;;;;5015825;28;20183;-75
2021/08/19 10:12:43;;;;;;;1.10;0.70;;;21.10;99.90;;;;;;5019899;28;20654;-76
2021/08/19 10:15:12;;;;;;;1.83;1.70;;;21.10;99.90;;;;;;5014626;28;20175;-74
2021/08/19 10:17:42;;;;;;;0.70;0.60;;;21.30;99.90;;;;;;5014647;28;21065;-76
2021/08/19 10:20:12;;;;;;;0.83;0.77;;;21.40;99.90;;;;;;5027365;28;20431;-75
2021/08/19 10:22:38;;;;;;;0.90;0.60;;;21.40;99.90;;;;;;5009069;28;20430;-76
2021/08/19 10:25:05;;;;;;;1.20;1.10;;;21.40;99.90;;;;;;5011574;28;20436;-76
2021/08/19 10:27:32;;;;;;;0.80;0.70;;;21.50;99.90;;;;;;4998888;28;20458;-76
2021/08/19 10:30:07;;;;;;;1.10;1.00;;;21.50;99.90;;;;;;5016949;28;20442;-76
2021/08/19 10:32:40;;;;;;;1.00;0.80;;;21.50;99.90;;;;;;5028790;28;20433;-76
2021/08/19 10:35:09;;;;;;;0.80;0.70;;;21.70;99.90;;;;;;5012522;28;20430;-75
2021/08/19 10:37:51;;;;;;;0.90;0.70;;;21.80;99.90;;;;;;5031297;28;20527;-76
2021/08/19 10:40:20;;;;;;;1.50;1.00;;;22.00;99.90;;;;;;4995615;28;20545;-77
2021/08/19 10:42:54;;;;;;;1.00;0.90;;;21.90;99.90;;;;;;5029289;28;20434;-75
2021/08/19 10:45:26;;;;;;;2.03;0.80;;;21.90;99.90;;;;;;5008868;28;21041;-74
2021/08/19 10:48:15;;;;;;;0.80;0.70;;;21.80;99.90;;;;;;5009438;28;20455;-74
2021/08/19 10:50:42;;;;;;;0.80;0.60;;;21.60;99.90;;;;;;5012330;28;20453;-75
2021/08/19 10:53:15;;;;;;;1.47;1.10;;;21.30;99.90;;;;;;5012276;28;20522;-75
2021/08/19 10:55:55;;;;;;;1.40;1.13;;;21.10;99.90;;;;;;5005629;28;20470;-74
2021/08/19 10:58:27;;;;;;;1.20;1.07;;;21.10;99.90;;;;;;4997134;28;20522;-74
2021/08/19 11:01:20;;;;;;;1.87;1.50;;;21.00;99.90;;;;;;5012998;28;20435;-75
2021/08/19 11:03:52;;;;;;;1.03;0.93;;;21.00;99.90;;;;;;5015216;28;20430;-75
2021/08/19 11:06:23;;;;;;;1.10;0.90;;;20.90;99.90;;;;;;5029788;28;20536;-74
2021/08/19 11:08:52;;;;;;;1.77;1.67;;;20.70;99.90;;;;;;5012705;28;20431;-74
2021/08/19 11:11:28;;;;;;;3.23;1.63;;;20.80;99.90;;;;;;5019876;28;20525;-75
2021/08/19 11:14:01;;;;;;;1.70;0.90;;;20.60;99.90;;;;;;5013434;28;20522;-75
2021/08/19 11:16:27;;;;;;;1.77;1.37;;;20.40;99.90;;;;;;5026598;28;20507;-75
2021/08/19 11:18:52;;;;;;;1.20;1.13;;;20.30;99.90;;;;;;5005914;28;20462;-74
2021/08/19 11:21:21;;;;;;;0.80;0.70;;;20.20;99.90;;;;;;5018901;28;20191;-76
2021/08/19 11:23:47;;;;;;;1.07;0.67;;;20.00;99.90;;;;;;5012126;28;20234;-75
2021/08/19 11:26:21;;;;;;;1.00;0.70;;;20.10;99.90;;;;;;5011135;28;20439;-74
2021/08/19 11:28:49;;;;;;;0.70;0.50;;;20.20;99.90;;;;;;5011159;28;20465;-75
2021/08/19 11:31:20;;;;;;;0.93;0.90;;;20.50;99.90;;;;;;5012900;28;20465;-75
2021/08/19 11:33:56;;;;;;;0.87;0.60;;;20.90;99.90;;;;;;5014426;28;20443;-76
2021/08/19 11:36:24;;;;;;;1.03;0.67;;;21.20;99.90;;;;;;5018898;28;20516;-76
2021/08/19 11:38:58;;;;;;;0.80;0.60;;;21.40;99.90;;;;;;5012320;28;20800;-77
2021/08/19 11:41:24;;;;;;;1.40;1.07;;;21.80;99.90;;;;;;5024336;28;20437;-77
2021/08/19 11:43:58;;;;;;;1.50;0.60;;;22.50;99.90;;;;;;5029524;28;20520;-77
2021/08/19 11:46:24;;;;;;;0.90;0.70;;;22.80;99.90;;;;;;5012326;28;20482;-76
2021/08/19 11:49:01;;;;;;;1.67;0.77;;;22.90;99.90;;;;;;4994980;28;20569;-75
2021/08/19 11:51:32;;;;;;;0.87;0.70;;;23.10;99.90;;;;;;5011909;28;20886;-75
2021/08/19 11:54:03;;;;;;;0.80;0.60;;;23.10;99.90;;;;;;5012186;28;20472;-77
2021/08/19 11:56:51;;;;;;;0.70;0.53;;;23.20;99.90;;;;;;4999635;28;20488;-75
2021/08/19 11:59:18;;;;;;;0.80;0.50;;;23.20;99.90;;;;;;5018617;28;20462;-75
2021/08/19 12:01:49;;;;;;;0.97;0.67;;;23.70;99.90;;;;;;5000034;28;20530;-76
2021/08/19 12:04:14;;;;;;;1.13;1.03;;;23.90;99.90;;;;;;5003430;28;20565;-76
2021/08/19 12:06:40;;;;;;;0.80;0.53;;;23.90;99.90;;;;;;5022628;28;20544;-75
2021/08/19 12:09:11;;;;;;;0.83;0.60;;;24.00;99.90;;;;;;5010481;28;20172;-76
2021/08/19 12:11:45;;;;;;;1.10;0.90;;;24.00;99.90;;;;;;4994499;28;20472;-75
2021/08/19 12:14:12;;;;;;;0.77;0.57;;;23.90;99.90;;;;;;4994751;28;20400;-75
2021/08/19 12:16:46;;;;;;;1.13;0.70;;;24.10;99.90;;;;;;5027250;28;20493;-75
2021/08/19 12:19:22;;;;;;;0.80;0.60;;;23.80;99.90;;;;;;5031555;28;20416;-75
2021/08/19 12:21:50;;;;;;;0.80;0.60;;;23.70;99.90;;;;;;5034530;28;20968;-76
2021/08/19 12:24:21;;;;;;;1.07;0.97;;;23.80;99.90;;;;;;5012323;28;20509;-76
2021/08/19 12:27:06;;;;;;;2.07;0.80;;;23.50;99.90;;;;;;5020251;28;20601;-75
2021/08/19 12:29:53;;;;;;;0.80;0.60;;;23.40;99.90;;;;;;5018445;28;20438;-75
2021/08/19 12:32:30;;;;;;;1.30;1.03;;;23.40;99.90;;;;;;5018618;28;20449;-74
2021/08/19 12:35:11;;;;;;;0.80;0.73;;;23.20;99.90;;;;;;5015536;28;20446;-74
2021/08/19 12:37:39;;;;;;;0.70;0.50;;;23.30;99.90;;;;;;5016295;28;20809;-75
2021/08/19 12:40:10;;;;;;;0.70;0.60;;;23.30;99.90;;;;;;5014702;28;20435;-76
2021/08/19 12:42:37;;;;;;;0.83;0.80;;;23.50;99.90;;;;;;5014826;28;20761;-75
2021/08/19 12:45:08;;;;;;;1.00;0.60;;;23.70;99.90;;;;;;5014401;28;20473;-74
2021/08/19 12:47:35;;;;;;;1.47;1.37;;;23.60;99.90;;;;;;5014958;28;20438;-76
2021/08/19 12:50:00;;;;;;;0.80;0.60;;;23.80;99.90;;;;;;5034412;28;20501;-74
2021/08/19 12:52:26;;;;;;;0.70;0.50;;;23.90;99.90;;;;;;5026956;28;20593;-76